sensor_id;sensor_type;location;lat;lon;timestamp;temperature;humidity
34815;DHT22;21030;53.912;15.214;2022-07-15T00:00:03;37.20;26.80
34815;DHT22;21030;53.912;15.214;2022-07-15T00:02:31;37.10;27.20
34815;DHT22;21030;53.912;15.214;2022-07-15T00:04:58;37.00;27.30
34815;DHT22;21030;53.912;15.214;2022-07-15T00:07:25;36.80;27.20
34815;DHT22;21030;53.912;15.214;2022-07-15T00:09:52;36.10;27.60
34815;DHT22;21030;53.912;15.214;2022-07-15T00:12:38;35.60;28.30
34815;DHT22;21030;53.912;15.214;2022-07-15T00:15:05;34.70;28.50
34815;DHT22;21030;53.912;15.214;2022-07-15T00:17:33;34.60;29.40
34815;DHT22;21030;53.912;15.214;2022-07-15T00:20:00;33.90;29.40
34815;DHT22;21030;53.912;15.214;2022-07-15T00:22:27;33.30;30.30
34815;DHT22;21030;53.912;15.214;2022-07-15T00:24:54;32.70;30.90
34815;DHT22;21030;53.912;15.214;2022-07-15T00:27:21;32.40;32.20
34815;DHT22;21030;53.912;15.214;2022-07-15T00:29:49;32.00;32.10
34815;DHT22;21030;53.912;15.214;2022-07-15T00:32:17;32.10;32.00
34815;DHT22;21030;53.912;15.214;2022-07-15T00:34:45;31.90;31.90
34815;DHT22;21030;53.912;15.214;2022-07-15T00:37:12;31.80;32.10
34815;DHT22;21030;53.912;15.214;2022-07-15T00:39:39;32.00;32.50
34815;DHT22;21030;53.912;15.214;2022-07-15T00:42:08;31.80;32.20
34815;DHT22;21030;53.912;15.214;2022-07-15T00:44:37;32.30;31.70
34815;DHT22;21030;53.912;15.214;2022-07-15T00:47:04;31.90;32.50
34815;DHT22;21030;53.912;15.214;2022-07-15T00:49:31;32.40;32.60
34815;DHT22;21030;53.912;15.214;2022-07-15T00:52:00;32.40;31.50
34815;DHT22;21030;53.912;15.214;2022-07-15T00:54:28;32.90;30.90
34815;DHT22;21030;53.912;15.214;2022-07-15T00:56:56;33.10;30.20
34815;DHT22;21030;53.912;15.214;2022-07-15T00:59:28;32.20;31.00
34815;DHT22;21030;53.912;15.214;2022-07-15T01:01:57;32.60;31.00
34815;DHT22;21030;53.912;15.214;2022-07-15T01:04:27;32.60;30.90
34815;DHT22;21030;53.912;15.214;2022-07-15T01:06:54;32.70;30.80
34815;DHT22;21030;53.912;15.214;2022-07-15T01:09:22;33.20;30.70
34815;DHT22;21030;53.912;15.214;2022-07-15T01:11:49;32.90;30.70
34815;DHT22;21030;53.912;15.214;2022-07-15T01:14:17;31.80;31.10
34815;DHT22;21030;53.912;15.214;2022-07-15T01:16:44;31.90;31.90
34815;DHT22;21030;53.912;15.214;2022-07-15T01:19:12;32.10;31.70
34815;DHT22;21030;53.912;15.214;2022-07-15T01:21:39;32.40;31.20
34815;DHT22;21030;53.912;15.214;2022-07-15T01:24:06;33.10;30.80
34815;DHT22;21030;53.912;15.214;2022-07-15T01:26:33;32.80;30.80
34815;DHT22;21030;53.912;15.214;2022-07-15T01:29:00;32.70;30.90
34815;DHT22;21030;53.912;15.214;2022-07-15T01:31:27;33.20;30.50
34815;DHT22;21030;53.912;15.214;2022-07-15T01:33:54;33.40;30.20
34815;DHT22;21030;53.912;15.214;2022-07-15T01:36:21;32.90;30.00
34815;DHT22;21030;53.912;15.214;2022-07-15T01:38:48;32.10;31.10
34815;DHT22;21030;53.912;15.214;2022-07-15T01:41:35;32.20;32.10
34815;DHT22;21030;53.912;15.214;2022-07-15T01:44:03;32.50;31.50
34815;DHT22;21030;53.912;15.214;2022-07-15T01:46:30;33.00;31.50
34815;DHT22;21030;53.912;15.214;2022-07-15T01:48:57;32.70;32.10
34815;DHT22;21030;53.912;15.214;2022-07-15T01:51:43;32.40;31.80
34815;DHT22;21030;53.912;15.214;2022-07-15T01:54:10;32.50;32.00
34815;DHT22;21030;53.912;15.214;2022-07-15T01:56:37;33.00;32.10
34815;DHT22;21030;53.912;15.214;2022-07-15T01:59:04;33.60;31.40
34815;DHT22;21030;53.912;15.214;2022-07-15T02:01:31;34.60;30.40
34815;DHT22;21030;53.912;15.214;2022-07-15T02:03:59;34.10;29.80
34815;DHT22;21030;53.912;15.214;2022-07-15T02:06:26;33.90;30.20
34815;DHT22;21030;53.912;15.214;2022-07-15T02:08:53;33.00;31.10
34815;DHT22;21030;53.912;15.214;2022-07-15T02:11:20;33.40;31.30
34815;DHT22;21030;53.912;15.214;2022-07-15T02:13:47;32.70;31.20
34815;DHT22;21030;53.912;15.214;2022-07-15T02:16:14;33.10;31.90
34815;DHT22;21030;53.912;15.214;2022-07-15T02:18:42;34.10;31.50
34815;DHT22;21030;53.912;15.214;2022-07-15T02:21:09;33.80;30.30
34815;DHT22;21030;53.912;15.214;2022-07-15T02:23:37;34.00;30.70
34815;DHT22;21030;53.912;15.214;2022-07-15T02:26:04;34.00;30.30
34815;DHT22;21030;53.912;15.214;2022-07-15T02:28:31;34.10;30.40
34815;DHT22;21030;53.912;15.214;2022-07-15T02:30:58;33.90;30.10
34815;DHT22;21030;53.912;15.214;2022-07-15T02:33:25;34.10;30.10
34815;DHT22;21030;53.912;15.214;2022-07-15T02:35:53;34.60;30.10
34815;DHT22;21030;53.912;15.214;2022-07-15T02:38:20;34.60;29.70
34815;DHT22;21030;53.912;15.214;2022-07-15T02:40:49;34.60;30.00
34815;DHT22;21030;53.912;15.214;2022-07-15T02:43:16;34.10;29.70
34815;DHT22;21030;53.912;15.214;2022-07-15T02:45:43;34.30;29.70
34815;DHT22;21030;53.912;15.214;2022-07-15T02:48:10;34.40;29.50
34815;DHT22;21030;53.912;15.214;2022-07-15T02:50:37;34.60;29.90
34815;DHT22;21030;53.912;15.214;2022-07-15T02:53:04;34.50;29.50
34815;DHT22;21030;53.912;15.214;2022-07-15T02:55:31;33.70;29.90
34815;DHT22;21030;53.912;15.214;2022-07-15T02:57:58;33.70;30.00
34815;DHT22;21030;53.912;15.214;2022-07-15T03:00:26;33.80;30.20
34815;DHT22;21030;53.912;15.214;2022-07-15T03:02:53;34.50;30.00
34815;DHT22;21030;53.912;15.214;2022-07-15T03:05:20;34.40;29.60
34815;DHT22;21030;53.912;15.214;2022-07-15T03:07:47;34.60;29.40
34815;DHT22;21030;53.912;15.214;2022-07-15T03:10:14;34.50;29.70
34815;DHT22;21030;53.912;15.214;2022-07-15T03:12:41;35.00;29.30
34815;DHT22;21030;53.912;15.214;2022-07-15T03:15:09;34.60;29.00
34815;DHT22;21030;53.912;15.214;2022-07-15T03:17:38;33.70;29.40
34815;DHT22;21030;53.912;15.214;2022-07-15T03:20:08;32.80;30.20
34815;DHT22;21030;53.912;15.214;2022-07-15T03:22:36;33.00;30.40
34815;DHT22;21030;53.912;15.214;2022-07-15T03:25:03;33.30;30.60
34815;DHT22;21030;53.912;15.214;2022-07-15T03:27:31;33.50;29.90
34815;DHT22;21030;53.912;15.214;2022-07-15T03:29:58;33.90;30.00
34815;DHT22;21030;53.912;15.214;2022-07-15T03:32:26;33.10;30.10
34815;DHT22;21030;53.912;15.214;2022-07-15T03:34:54;33.20;30.00
34815;DHT22;21030;53.912;15.214;2022-07-15T03:37:23;33.40;30.40
34815;DHT22;21030;53.912;15.214;2022-07-15T03:39:51;33.50;30.00
34815;DHT22;21030;53.912;15.214;2022-07-15T03:42:18;33.40;30.30
34815;DHT22;21030;53.912;15.214;2022-07-15T03:44:45;33.00;29.90
34815;DHT22;21030;53.912;15.214;2022-07-15T03:47:12;32.90;30.10
34815;DHT22;21030;53.912;15.214;2022-07-15T03:49:39;32.60;30.00
34815;DHT22;21030;53.912;15.214;2022-07-15T03:52:06;32.60;31.80
34815;DHT22;21030;53.912;15.214;2022-07-15T03:54:34;32.80;30.30
34815;DHT22;21030;53.912;15.214;2022-07-15T03:57:01;32.30;30.90
34815;DHT22;21030;53.912;15.214;2022-07-15T03:59:28;33.40;30.10
34815;DHT22;21030;53.912;15.214;2022-07-15T04:01:55;33.10;29.80
34815;DHT22;21030;53.912;15.214;2022-07-15T04:04:23;33.00;29.90
34815;DHT22;21030;53.912;15.214;2022-07-15T04:06:50;32.10;30.00
34815;DHT22;21030;53.912;15.214;2022-07-15T04:09:17;31.90;31.10
34815;DHT22;21030;53.912;15.214;2022-07-15T04:11:44;31.10;31.60
34815;DHT22;21030;53.912;15.214;2022-07-15T04:14:12;31.80;31.40
34815;DHT22;21030;53.912;15.214;2022-07-15T04:16:41;31.60;31.60
34815;DHT22;21030;53.912;15.214;2022-07-15T04:19:08;30.80;31.70
34815;DHT22;21030;53.912;15.214;2022-07-15T04:21:35;31.30;32.30
34815;DHT22;21030;53.912;15.214;2022-07-15T04:24:03;31.40;31.70
34815;DHT22;21030;53.912;15.214;2022-07-15T04:26:30;32.50;30.90
34815;DHT22;21030;53.912;15.214;2022-07-15T04:28:57;32.50;30.50
34815;DHT22;21030;53.912;15.214;2022-07-15T04:31:24;32.30;30.00
34815;DHT22;21030;53.912;15.214;2022-07-15T04:33:51;31.80;30.50
34815;DHT22;21030;53.912;15.214;2022-07-15T04:36:18;31.80;30.10
34815;DHT22;21030;53.912;15.214;2022-07-15T04:38:45;32.20;30.30
34815;DHT22;21030;53.912;15.214;2022-07-15T04:41:12;33.20;29.60
34815;DHT22;21030;53.912;15.214;2022-07-15T04:43:40;33.20;29.50
34815;DHT22;21030;53.912;15.214;2022-07-15T04:46:07;32.90;29.50
34815;DHT22;21030;53.912;15.214;2022-07-15T04:48:36;32.20;29.80
34815;DHT22;21030;53.912;15.214;2022-07-15T04:51:21;31.70;30.20
34815;DHT22;21030;53.912;15.214;2022-07-15T04:53:48;31.50;31.00
34815;DHT22;21030;53.912;15.214;2022-07-15T04:56:15;31.00;31.80
34815;DHT22;21030;53.912;15.214;2022-07-15T04:58:42;31.50;30.90
34815;DHT22;21030;53.912;15.214;2022-07-15T05:01:09;32.70;30.10
34815;DHT22;21030;53.912;15.214;2022-07-15T05:03:37;32.50;29.50
34815;DHT22;21030;53.912;15.214;2022-07-15T05:06:04;32.60;29.60
34815;DHT22;21030;53.912;15.214;2022-07-15T05:08:31;32.10;29.50
34815;DHT22;21030;53.912;15.214;2022-07-15T05:10:58;32.10;30.00
34815;DHT22;21030;53.912;15.214;2022-07-15T05:13:26;31.90;30.00
34815;DHT22;21030;53.912;15.214;2022-07-15T05:15:53;32.40;30.00
34815;DHT22;21030;53.912;15.214;2022-07-15T05:18:20;32.30;29.60
34815;DHT22;21030;53.912;15.214;2022-07-15T05:20:47;32.20;29.80
34815;DHT22;21030;53.912;15.214;2022-07-15T05:23:16;32.50;29.70
34815;DHT22;21030;53.912;15.214;2022-07-15T05:25:45;32.20;29.60
34815;DHT22;21030;53.912;15.214;2022-07-15T05:28:13;31.80;30.00
34815;DHT22;21030;53.912;15.214;2022-07-15T05:30:40;31.90;29.90
34815;DHT22;21030;53.912;15.214;2022-07-15T05:33:07;31.60;29.90
34815;DHT22;21030;53.912;15.214;2022-07-15T05:35:34;30.90;31.10
34815;DHT22;21030;53.912;15.214;2022-07-15T05:38:01;31.70;30.90
34815;DHT22;21030;53.912;15.214;2022-07-15T05:40:28;31.90;30.00
34815;DHT22;21030;53.912;15.214;2022-07-15T05:42:56;31.80;29.90
34815;DHT22;21030;53.912;15.214;2022-07-15T05:45:24;31.50;30.50
34815;DHT22;21030;53.912;15.214;2022-07-15T05:47:52;30.80;30.70
34815;DHT22;21030;53.912;15.214;2022-07-15T05:50:19;31.60;30.30
34815;DHT22;21030;53.912;15.214;2022-07-15T05:52:47;31.40;29.90
34815;DHT22;21030;53.912;15.214;2022-07-15T05:55:14;30.60;30.10
34815;DHT22;21030;53.912;15.214;2022-07-15T05:57:41;30.20;31.30
34815;DHT22;21030;53.912;15.214;2022-07-15T06:00:12;31.30;31.10
34815;DHT22;21030;53.912;15.214;2022-07-15T06:02:40;32.10;29.90
34815;DHT22;21030;53.912;15.214;2022-07-15T06:05:08;32.50;28.90
34815;DHT22;21030;53.912;15.214;2022-07-15T06:07:36;32.20;28.70
34815;DHT22;21030;53.912;15.214;2022-07-15T06:10:04;31.80;29.40
34815;DHT22;21030;53.912;15.214;2022-07-15T06:12:32;32.10;29.50
34815;DHT22;21030;53.912;15.214;2022-07-15T06:14:59;31.70;29.30
34815;DHT22;21030;53.912;15.214;2022-07-15T06:17:26;31.80;29.20
34815;DHT22;21030;53.912;15.214;2022-07-15T06:19:53;31.50;29.60
34815;DHT22;21030;53.912;15.214;2022-07-15T06:22:20;31.70;29.20
34815;DHT22;21030;53.912;15.214;2022-07-15T06:24:47;32.00;29.10
34815;DHT22;21030;53.912;15.214;2022-07-15T06:27:14;32.90;29.00
34815;DHT22;21030;53.912;15.214;2022-07-15T06:29:41;33.00;28.40
34815;DHT22;21030;53.912;15.214;2022-07-15T06:32:08;32.40;28.10
34815;DHT22;21030;53.912;15.214;2022-07-15T06:34:38;33.20;28.50
34815;DHT22;21030;53.912;15.214;2022-07-15T06:37:05;34.70;27.70
34815;DHT22;21030;53.912;15.214;2022-07-15T06:39:32;35.00;26.80
34815;DHT22;21030;53.912;15.214;2022-07-15T06:42:01;34.30;27.10
34815;DHT22;21030;53.912;15.214;2022-07-15T06:44:28;34.60;27.10
34815;DHT22;21030;53.912;15.214;2022-07-15T06:46:57;34.90;27.10
34815;DHT22;21030;53.912;15.214;2022-07-15T06:49:26;33.80;27.00
34815;DHT22;21030;53.912;15.214;2022-07-15T06:51:53;34.20;27.10
34815;DHT22;21030;53.912;15.214;2022-07-15T06:54:20;32.90;27.40
34815;DHT22;21030;53.912;15.214;2022-07-15T06:56:47;33.10;28.20
34815;DHT22;21030;53.912;15.214;2022-07-15T06:59:14;32.80;27.70
34815;DHT22;21030;53.912;15.214;2022-07-15T07:01:41;32.60;28.00
34815;DHT22;21030;53.912;15.214;2022-07-15T07:04:09;33.70;28.00
34815;DHT22;21030;53.912;15.214;2022-07-15T07:06:36;33.90;27.20
34815;DHT22;21030;53.912;15.214;2022-07-15T07:09:03;33.90;26.80
34815;DHT22;21030;53.912;15.214;2022-07-15T07:11:30;33.50;27.30
34815;DHT22;21030;53.912;15.214;2022-07-15T07:13:59;34.60;27.10
34815;DHT22;21030;53.912;15.214;2022-07-15T07:16:27;34.80;26.30
34815;DHT22;21030;53.912;15.214;2022-07-15T07:18:54;34.30;26.00
34815;DHT22;21030;53.912;15.214;2022-07-15T07:21:21;34.50;26.10
34815;DHT22;21030;53.912;15.214;2022-07-15T07:23:57;33.70;26.70
34815;DHT22;21030;53.912;15.214;2022-07-15T07:26:25;34.20;26.60
34815;DHT22;21030;53.912;15.214;2022-07-15T07:28:52;33.80;26.40
34815;DHT22;21030;53.912;15.214;2022-07-15T07:31:20;34.40;27.00
34815;DHT22;21030;53.912;15.214;2022-07-15T07:33:54;34.80;26.20
34815;DHT22;21030;53.912;15.214;2022-07-15T07:36:22;34.30;26.00
34815;DHT22;21030;53.912;15.214;2022-07-15T07:38:50;34.30;25.90
34815;DHT22;21030;53.912;15.214;2022-07-15T07:41:17;34.10;26.10
34815;DHT22;21030;53.912;15.214;2022-07-15T07:43:44;33.00;26.30
34815;DHT22;21030;53.912;15.214;2022-07-15T07:46:13;32.80;28.00
34815;DHT22;21030;53.912;15.214;2022-07-15T07:48:40;33.80;27.30
34815;DHT22;21030;53.912;15.214;2022-07-15T07:51:10;34.60;26.20
34815;DHT22;21030;53.912;15.214;2022-07-15T07:53:37;34.90;26.20
34815;DHT22;21030;53.912;15.214;2022-07-15T07:56:04;35.20;25.80
34815;DHT22;21030;53.912;15.214;2022-07-15T07:58:32;35.00;26.10
34815;DHT22;21030;53.912;15.214;2022-07-15T08:00:59;34.80;25.50
34815;DHT22;21030;53.912;15.214;2022-07-15T08:03:26;33.50;26.10
34815;DHT22;21030;53.912;15.214;2022-07-15T08:05:56;33.90;26.60
34815;DHT22;21030;53.912;15.214;2022-07-15T08:08:23;34.10;26.30
34815;DHT22;21030;53.912;15.214;2022-07-15T08:10:55;33.80;26.30
34815;DHT22;21030;53.912;15.214;2022-07-15T08:13:25;34.70;26.40
34815;DHT22;21030;53.912;15.214;2022-07-15T08:15:53;34.20;26.10
34815;DHT22;21030;53.912;15.214;2022-07-15T08:18:27;34.40;26.10
34815;DHT22;21030;53.912;15.214;2022-07-15T08:20:55;34.40;26.10
34815;DHT22;21030;53.912;15.214;2022-07-15T08:23:22;34.80;25.80
34815;DHT22;21030;53.912;15.214;2022-07-15T08:25:50;34.70;25.40
34815;DHT22;21030;53.912;15.214;2022-07-15T08:28:18;35.30;25.30
34815;DHT22;21030;53.912;15.214;2022-07-15T08:30:45;34.90;25.20
34815;DHT22;21030;53.912;15.214;2022-07-15T08:33:13;33.80;25.80
34815;DHT22;21030;53.912;15.214;2022-07-15T08:35:41;34.20;26.10
34815;DHT22;21030;53.912;15.214;2022-07-15T08:38:09;33.90;25.90
34815;DHT22;21030;53.912;15.214;2022-07-15T08:40:38;33.40;26.20
34815;DHT22;21030;53.912;15.214;2022-07-15T08:43:07;32.70;26.90
34815;DHT22;21030;53.912;15.214;2022-07-15T08:45:36;33.20;26.90
34815;DHT22;21030;53.912;15.214;2022-07-15T08:48:06;34.00;26.40
34815;DHT22;21030;53.912;15.214;2022-07-15T08:50:35;33.70;26.50
34815;DHT22;21030;53.912;15.214;2022-07-15T08:53:03;33.90;26.70
34815;DHT22;21030;53.912;15.214;2022-07-15T08:55:31;34.00;26.40
34815;DHT22;21030;53.912;15.214;2022-07-15T08:57:58;35.00;25.90
34815;DHT22;21030;53.912;15.214;2022-07-15T09:00:27;35.60;25.50
34815;DHT22;21030;53.912;15.214;2022-07-15T09:02:59;34.80;25.20
34815;DHT22;21030;53.912;15.214;2022-07-15T09:05:31;34.60;25.60
34815;DHT22;21030;53.912;15.214;2022-07-15T09:08:14;33.90;26.00
34815;DHT22;21030;53.912;15.214;2022-07-15T09:10:49;34.30;25.90
34815;DHT22;21030;53.912;15.214;2022-07-15T09:13:34;34.80;26.40
34815;DHT22;21030;53.912;15.214;2022-07-15T09:18:45;34.50;25.50
34815;DHT22;21030;53.912;15.214;2022-07-15T09:21:26;35.80;25.00
34815;DHT22;21030;53.912;15.214;2022-07-15T09:23:54;35.90;24.60
34815;DHT22;21030;53.912;15.214;2022-07-15T09:26:30;36.50;24.60
34815;DHT22;21030;53.912;15.214;2022-07-15T09:29:00;35.90;23.90
34815;DHT22;21030;53.912;15.214;2022-07-15T09:34:13;35.80;24.30
34815;DHT22;21030;53.912;15.214;2022-07-15T09:36:46;35.60;24.20
34815;DHT22;21030;53.912;15.214;2022-07-15T09:39:18;35.60;24.20
34815;DHT22;21030;53.912;15.214;2022-07-15T09:41:46;35.70;24.20
34815;DHT22;21030;53.912;15.214;2022-07-15T09:44:21;35.90;24.10
34815;DHT22;21030;53.912;15.214;2022-07-15T09:46:58;35.70;25.00
34815;DHT22;21030;53.912;15.214;2022-07-15T09:54:31;36.70;24.10
34815;DHT22;21030;53.912;15.214;2022-07-15T09:57:01;36.40;23.80
34815;DHT22;21030;53.912;15.214;2022-07-15T09:59:29;36.90;24.00
34815;DHT22;21030;53.912;15.214;2022-07-15T10:01:57;37.10;23.50
34815;DHT22;21030;53.912;15.214;2022-07-15T10:04:27;37.70;23.80
34815;DHT22;21030;53.912;15.214;2022-07-15T10:06:55;38.60;23.20
34815;DHT22;21030;53.912;15.214;2022-07-15T10:09:43;38.20;22.50
34815;DHT22;21030;53.912;15.214;2022-07-15T10:12:23;38.10;21.70
34815;DHT22;21030;53.912;15.214;2022-07-15T10:15:42;38.10;22.30
34815;DHT22;21030;53.912;15.214;2022-07-15T10:17:59;38.20;21.80
34815;DHT22;21030;53.912;15.214;2022-07-15T10:21:05;38.00;22.30
34815;DHT22;21030;53.912;15.214;2022-07-15T10:26:38;39.70;21.70
34815;DHT22;21030;53.912;15.214;2022-07-15T10:29:07;39.70;21.20
34815;DHT22;21030;53.912;15.214;2022-07-15T10:31:38;40.10;21.30
34815;DHT22;21030;53.912;15.214;2022-07-15T10:39:08;39.90;21.60
34815;DHT22;21030;53.912;15.214;2022-07-15T10:42:02;39.30;21.60
34815;DHT22;21030;53.912;15.214;2022-07-15T10:44:34;38.70;22.00
34815;DHT22;21030;53.912;15.214;2022-07-15T10:49:49;40.00;21.70
34815;DHT22;21030;53.912;15.214;2022-07-15T10:52:21;40.40;21.10
34815;DHT22;21030;53.912;15.214;2022-07-15T10:55:09;40.00;21.10
34815;DHT22;21030;53.912;15.214;2022-07-15T11:03:10;39.50;21.00
34815;DHT22;21030;53.912;15.214;2022-07-15T11:13:45;39.70;21.20
34815;DHT22;21030;53.912;15.214;2022-07-15T11:16:19;40.00;21.80
34815;DHT22;21030;53.912;15.214;2022-07-15T11:18:56;40.70;21.10
34815;DHT22;21030;53.912;15.214;2022-07-15T11:21:27;40.90;20.50
34815;DHT22;21030;53.912;15.214;2022-07-15T11:23:54;41.50;20.70
34815;DHT22;21030;53.912;15.214;2022-07-15T11:26:21;42.20;20.20
34815;DHT22;21030;53.912;15.214;2022-07-15T11:28:53;42.40;19.60
34815;DHT22;21030;53.912;15.214;2022-07-15T11:31:26;41.70;19.60
34815;DHT22;21030;53.912;15.214;2022-07-15T11:33:54;40.80;19.70
34815;DHT22;21030;53.912;15.214;2022-07-15T11:36:23;40.20;20.60
34815;DHT22;21030;53.912;15.214;2022-07-15T11:38:51;39.50;20.80
34815;DHT22;21030;53.912;15.214;2022-07-15T11:41:19;39.50;21.30
34815;DHT22;21030;53.912;15.214;2022-07-15T11:44:07;39.30;21.10
34815;DHT22;21030;53.912;15.214;2022-07-15T11:46:53;40.10;21.20
34815;DHT22;21030;53.912;15.214;2022-07-15T11:49:28;39.90;21.00
34815;DHT22;21030;53.912;15.214;2022-07-15T11:51:55;40.00;21.40
34815;DHT22;21030;53.912;15.214;2022-07-15T11:54:22;40.90;21.20
34815;DHT22;21030;53.912;15.214;2022-07-15T11:56:54;41.40;20.50
34815;DHT22;21030;53.912;15.214;2022-07-15T11:59:21;41.50;20.50
34815;DHT22;21030;53.912;15.214;2022-07-15T12:02:17;41.90;20.70
34815;DHT22;21030;53.912;15.214;2022-07-15T12:04:47;41.80;20.50
34815;DHT22;21030;53.912;15.214;2022-07-15T12:07:14;40.50;21.00
34815;DHT22;21030;53.912;15.214;2022-07-15T12:09:49;40.20;20.80
34815;DHT22;21030;53.912;15.214;2022-07-15T12:12:17;39.80;21.20
34815;DHT22;21030;53.912;15.214;2022-07-15T12:14:48;40.20;21.30
34815;DHT22;21030;53.912;15.214;2022-07-15T12:17:16;40.50;21.50
34815;DHT22;21030;53.912;15.214;2022-07-15T12:19:50;41.40;21.30
34815;DHT22;21030;53.912;15.214;2022-07-15T12:22:18;41.70;20.50
34815;DHT22;21030;53.912;15.214;2022-07-15T12:24:48;42.00;20.20
34815;DHT22;21030;53.912;15.214;2022-07-15T12:27:30;41.80;20.40
34815;DHT22;21030;53.912;15.214;2022-07-15T12:30:06;41.00;20.30
34815;DHT22;21030;53.912;15.214;2022-07-15T12:32:36;41.20;20.40
34815;DHT22;21030;53.912;15.214;2022-07-15T12:35:05;41.90;20.20
34815;DHT22;21030;53.912;15.214;2022-07-15T12:40:11;42.00;20.00
34815;DHT22;21030;53.912;15.214;2022-07-15T12:42:47;42.20;20.20
34815;DHT22;21030;53.912;15.214;2022-07-15T12:45:23;41.80;20.10
34815;DHT22;21030;53.912;15.214;2022-07-15T12:48:00;41.50;20.10
34815;DHT22;21030;53.912;15.214;2022-07-15T12:50:36;41.00;20.10
34815;DHT22;21030;53.912;15.214;2022-07-15T12:53:03;41.10;21.00
34815;DHT22;21030;53.912;15.214;2022-07-15T12:55:33;41.40;20.50
34815;DHT22;21030;53.912;15.214;2022-07-15T12:58:11;41.70;20.40
34815;DHT22;21030;53.912;15.214;2022-07-15T13:00:40;41.90;20.30
34815;DHT22;21030;53.912;15.214;2022-07-15T13:03:10;41.70;20.20
34815;DHT22;21030;53.912;15.214;2022-07-15T13:05:43;40.70;19.90
34815;DHT22;21030;53.912;15.214;2022-07-15T13:08:15;39.70;19.60
34815;DHT22;21030;53.912;15.214;2022-07-15T13:10:45;39.40;19.80
34815;DHT22;21030;53.912;15.214;2022-07-15T13:13:16;38.80;20.30
34815;DHT22;21030;53.912;15.214;2022-07-15T13:15:45;39.00;20.70
34815;DHT22;21030;53.912;15.214;2022-07-15T13:18:13;39.70;20.70
34815;DHT22;21030;53.912;15.214;2022-07-15T13:20:41;40.40;19.90
34815;DHT22;21030;53.912;15.214;2022-07-15T13:23:09;41.20;19.50
34815;DHT22;21030;53.912;15.214;2022-07-15T13:25:37;41.90;19.50
34815;DHT22;21030;53.912;15.214;2022-07-15T13:28:04;42.30;19.30
34815;DHT22;21030;53.912;15.214;2022-07-15T13:30:32;42.40;18.70
34815;DHT22;21030;53.912;15.214;2022-07-15T13:33:00;41.80;18.80
34815;DHT22;21030;53.912;15.214;2022-07-15T13:35:27;41.70;19.30
34815;DHT22;21030;53.912;15.214;2022-07-15T13:37:55;42.20;18.90
34815;DHT22;21030;53.912;15.214;2022-07-15T13:40:22;42.20;18.60
34815;DHT22;21030;53.912;15.214;2022-07-15T13:42:49;42.70;19.40
34815;DHT22;21030;53.912;15.214;2022-07-15T13:45:16;42.70;18.90
34815;DHT22;21030;53.912;15.214;2022-07-15T13:47:43;43.00;18.70
34815;DHT22;21030;53.912;15.214;2022-07-15T13:50:11;42.40;18.80
34815;DHT22;21030;53.912;15.214;2022-07-15T13:52:58;42.20;18.80
34815;DHT22;21030;53.912;15.214;2022-07-15T13:55:26;42.50;19.00
34815;DHT22;21030;53.912;15.214;2022-07-15T13:57:53;42.30;19.10
34815;DHT22;21030;53.912;15.214;2022-07-15T14:00:22;42.50;19.30
34815;DHT22;21030;53.912;15.214;2022-07-15T14:02:50;42.10;19.00
34815;DHT22;21030;53.912;15.214;2022-07-15T14:05:18;40.80;19.20
34815;DHT22;21030;53.912;15.214;2022-07-15T14:07:46;41.00;19.90
34815;DHT22;21030;53.912;15.214;2022-07-15T14:10:13;41.00;19.70
34815;DHT22;21030;53.912;15.214;2022-07-15T14:12:41;41.10;19.80
34815;DHT22;21030;53.912;15.214;2022-07-15T14:15:09;41.00;19.90
34815;DHT22;21030;53.912;15.214;2022-07-15T14:17:36;41.20;20.00
34815;DHT22;21030;53.912;15.214;2022-07-15T14:20:04;41.60;19.70
34815;DHT22;21030;53.912;15.214;2022-07-15T14:22:31;42.40;19.70
34815;DHT22;21030;53.912;15.214;2022-07-15T14:24:59;42.80;19.30
34815;DHT22;21030;53.912;15.214;2022-07-15T14:27:27;42.50;19.20
34815;DHT22;21030;53.912;15.214;2022-07-15T14:29:54;42.10;19.20
34815;DHT22;21030;53.912;15.214;2022-07-15T14:32:28;41.50;19.50
34815;DHT22;21030;53.912;15.214;2022-07-15T14:35:00;41.20;19.40
34815;DHT22;21030;53.912;15.214;2022-07-15T14:37:27;41.00;19.50
34815;DHT22;21030;53.912;15.214;2022-07-15T14:40:00;41.10;20.10
34815;DHT22;21030;53.912;15.214;2022-07-15T14:42:27;41.40;20.00
34815;DHT22;21030;53.912;15.214;2022-07-15T14:44:54;41.70;20.00
34815;DHT22;21030;53.912;15.214;2022-07-15T14:47:21;41.80;19.50
34815;DHT22;21030;53.912;15.214;2022-07-15T14:49:48;42.10;19.60
34815;DHT22;21030;53.912;15.214;2022-07-15T14:52:16;42.10;19.40
34815;DHT22;21030;53.912;15.214;2022-07-15T14:54:43;41.90;19.30
34815;DHT22;21030;53.912;15.214;2022-07-15T14:57:10;41.90;19.30
34815;DHT22;21030;53.912;15.214;2022-07-15T14:59:37;42.20;19.30
34815;DHT22;21030;53.912;15.214;2022-07-15T15:02:07;42.50;19.20
34815;DHT22;21030;53.912;15.214;2022-07-15T15:04:35;41.90;18.80
34815;DHT22;21030;53.912;15.214;2022-07-15T15:07:03;41.60;19.60
34815;DHT22;21030;53.912;15.214;2022-07-15T15:09:30;41.70;19.40
34815;DHT22;21030;53.912;15.214;2022-07-15T15:11:57;40.80;19.60
34815;DHT22;21030;53.912;15.214;2022-07-15T15:14:33;40.30;20.10
34815;DHT22;21030;53.912;15.214;2022-07-15T15:17:00;39.30;20.40
34815;DHT22;21030;53.912;15.214;2022-07-15T15:19:30;38.80;21.00
34815;DHT22;21030;53.912;15.214;2022-07-15T15:21:57;37.70;21.60
34815;DHT22;21030;53.912;15.214;2022-07-15T15:24:24;38.00;21.90
34815;DHT22;21030;53.912;15.214;2022-07-15T15:26:51;37.80;22.30
34815;DHT22;21030;53.912;15.214;2022-07-15T15:29:19;38.60;22.10
34815;DHT22;21030;53.912;15.214;2022-07-15T15:31:47;39.10;21.50
34815;DHT22;21030;53.912;15.214;2022-07-15T15:34:18;39.30;21.70
34815;DHT22;21030;53.912;15.214;2022-07-15T15:36:46;39.50;21.30
34815;DHT22;21030;53.912;15.214;2022-07-15T15:39:15;39.00;21.50
34815;DHT22;21030;53.912;15.214;2022-07-15T15:41:42;38.80;21.80
34815;DHT22;21030;53.912;15.214;2022-07-15T15:44:10;38.80;21.90
34815;DHT22;21030;53.912;15.214;2022-07-15T15:46:38;39.50;21.90
34815;DHT22;21030;53.912;15.214;2022-07-15T15:49:05;38.70;21.70
34815;DHT22;21030;53.912;15.214;2022-07-15T15:51:33;39.10;21.80
34815;DHT22;21030;53.912;15.214;2022-07-15T15:54:00;38.40;21.80
34815;DHT22;21030;53.912;15.214;2022-07-15T15:56:27;38.10;22.50
34815;DHT22;21030;53.912;15.214;2022-07-15T15:58:54;38.20;22.40
34815;DHT22;21030;53.912;15.214;2022-07-15T16:01:21;37.50;23.00
34815;DHT22;21030;53.912;15.214;2022-07-15T16:03:49;36.70;22.60